sensor_id;sensor_type;location;lat;lon;timestamp;P1;durP1;ratioP1;P2;durP2;ratioP2
58784;SDS011;44557;51.862;19.378;2023-09-19T00:01:58;16.00;;;12.90;;
58784;SDS011;44557;51.862;19.378;2023-09-19T00:04:00;17.70;;;12.90;;
58784;SDS011;44557;51.862;19.378;2023-09-19T00:06:03;15.60;;;13.10;;
58784;SDS011;44557;51.862;19.378;2023-09-19T00:08:06;15.00;;;13.20;;
58784;SDS011;44557;51.862;19.378;2023-09-19T00:10:08;15.40;;;12.60;;
58784;SDS011;44557;51.862;19.378;2023-09-19T00:12:11;14.70;;;12.90;;
58784;SDS011;44557;51.862;19.378;2023-09-19T00:14:15;15.50;;;13.00;;
58784;SDS011;44557;51.862;19.378;2023-09-19T00:16:17;16.80;;;13.50;;
58784;SDS011;44557;51.862;19.378;2023-09-19T00:18:20;14.70;;;12.90;;
58784;SDS011;44557;51.862;19.378;2023-09-19T00:20:23;17.10;;;12.20;;
58784;SDS011;44557;51.862;19.378;2023-09-19T00:22:26;15.00;;;12.60;;
58784;SDS011;44557;51.862;19.378;2023-09-19T00:24:28;14.20;;;12.60;;
58784;SDS011;44557;51.862;19.378;2023-09-19T00:26:31;14.40;;;12.50;;
58784;SDS011;44557;51.862;19.378;2023-09-19T00:28:34;15.70;;;12.60;;
58784;SDS011;44557;51.862;19.378;2023-09-19T00:30:37;17.00;;;13.70;;
58784;SDS011;44557;51.862;19.378;2023-09-19T00:32:40;16.00;;;13.30;;
58784;SDS011;44557;51.862;19.378;2023-09-19T00:34:44;14.90;;;13.20;;
58784;SDS011;44557;51.862;19.378;2023-09-19T00:36:46;17.60;;;12.80;;
58784;SDS011;44557;51.862;19.378;2023-09-19T00:38:48;14.40;;;12.80;;
58784;SDS011;44557;51.862;19.378;2023-09-19T00:40:50;15.60;;;12.70;;
58784;SDS011;44557;51.862;19.378;2023-09-19T00:42:52;18.70;;;12.90;;
58784;SDS011;44557;51.862;19.378;2023-09-19T00:45:01;14.40;;;12.90;;
58784;SDS011;44557;51.862;19.378;2023-09-19T00:47:05;15.10;;;12.50;;
58784;SDS011;44557;51.862;19.378;2023-09-19T00:49:08;15.10;;;13.50;;
58784;SDS011;44557;51.862;19.378;2023-09-19T00:51:11;16.70;;;13.10;;
58784;SDS011;44557;51.862;19.378;2023-09-19T00:53:34;15.90;;;13.10;;
58784;SDS011;44557;51.862;19.378;2023-09-19T00:55:36;14.80;;;12.70;;
58784;SDS011;44557;51.862;19.378;2023-09-19T00:57:39;15.20;;;12.30;;
58784;SDS011;44557;51.862;19.378;2023-09-19T00:59:43;15.30;;;13.00;;
58784;SDS011;44557;51.862;19.378;2023-09-19T01:01:46;16.40;;;12.80;;
58784;SDS011;44557;51.862;19.378;2023-09-19T01:03:50;16.70;;;13.50;;
58784;SDS011;44557;51.862;19.378;2023-09-19T01:05:52;17.30;;;13.10;;
58784;SDS011;44557;51.862;19.378;2023-09-19T01:07:54;16.50;;;13.60;;
58784;SDS011;44557;51.862;19.378;2023-09-19T01:09:57;15.80;;;13.20;;
58784;SDS011;44557;51.862;19.378;2023-09-19T01:12:02;16.10;;;13.20;;
58784;SDS011;44557;51.862;19.378;2023-09-19T01:14:28;16.40;;;13.20;;
58784;SDS011;44557;51.862;19.378;2023-09-19T01:16:45;15.30;;;12.90;;
58784;SDS011;44557;51.862;19.378;2023-09-19T01:30:29;15.40;;;12.70;;
58784;SDS011;44557;51.862;19.378;2023-09-19T01:32:37;15.00;;;12.20;;
58784;SDS011;44557;51.862;19.378;2023-09-19T01:34:45;14.30;;;12.20;;
58784;SDS011;44557;51.862;19.378;2023-09-19T01:36:51;14.60;;;12.90;;
58784;SDS011;44557;51.862;19.378;2023-09-19T01:38:53;13.90;;;12.40;;
58784;SDS011;44557;51.862;19.378;2023-09-19T01:41:03;14.20;;;12.70;;
58784;SDS011;44557;51.862;19.378;2023-09-19T01:43:15;14.70;;;13.10;;
58784;SDS011;44557;51.862;19.378;2023-09-19T01:45:26;17.60;;;13.50;;
58784;SDS011;44557;51.862;19.378;2023-09-19T01:47:55;15.60;;;13.30;;
58784;SDS011;44557;51.862;19.378;2023-09-19T01:52:38;15.50;;;12.40;;
58784;SDS011;44557;51.862;19.378;2023-09-19T01:55:01;15.80;;;13.10;;
58784;SDS011;44557;51.862;19.378;2023-09-19T01:57:13;14.70;;;12.80;;
58784;SDS011;44557;51.862;19.378;2023-09-19T01:59:24;14.90;;;12.80;;
58784;SDS011;44557;51.862;19.378;2023-09-19T02:01:30;15.70;;;12.40;;
58784;SDS011;44557;51.862;19.378;2023-09-19T02:03:34;16.50;;;13.10;;
58784;SDS011;44557;51.862;19.378;2023-09-19T02:05:37;15.40;;;13.20;;
58784;SDS011;44557;51.862;19.378;2023-09-19T02:07:40;14.90;;;13.10;;
58784;SDS011;44557;51.862;19.378;2023-09-19T02:09:45;14.90;;;12.60;;
58784;SDS011;44557;51.862;19.378;2023-09-19T02:11:49;15.50;;;13.00;;
58784;SDS011;44557;51.862;19.378;2023-09-19T02:13:51;16.00;;;13.20;;
58784;SDS011;44557;51.862;19.378;2023-09-19T02:15:56;14.70;;;12.70;;
58784;SDS011;44557;51.862;19.378;2023-09-19T02:17:57;16.50;;;13.40;;
58784;SDS011;44557;51.862;19.378;2023-09-19T02:20:01;14.70;;;12.80;;
58784;SDS011;44557;51.862;19.378;2023-09-19T02:22:03;16.30;;;12.80;;
58784;SDS011;44557;51.862;19.378;2023-09-19T02:24:10;14.80;;;13.10;;
58784;SDS011;44557;51.862;19.378;2023-09-19T02:26:11;14.50;;;12.20;;
58784;SDS011;44557;51.862;19.378;2023-09-19T02:28:14;14.90;;;13.30;;
58784;SDS011;44557;51.862;19.378;2023-09-19T02:30:15;15.10;;;13.40;;
58784;SDS011;44557;51.862;19.378;2023-09-19T02:32:19;16.30;;;13.50;;
58784;SDS011;44557;51.862;19.378;2023-09-19T02:34:21;17.80;;;13.80;;
58784;SDS011;44557;51.862;19.378;2023-09-19T02:36:24;14.70;;;12.90;;
58784;SDS011;44557;51.862;19.378;2023-09-19T02:38:25;15.50;;;13.70;;
58784;SDS011;44557;51.862;19.378;2023-09-19T02:40:28;15.40;;;13.20;;
58784;SDS011;44557;51.862;19.378;2023-09-19T02:42:30;14.50;;;13.00;;
58784;SDS011;44557;51.862;19.378;2023-09-19T02:44:31;16.20;;;12.80;;
58784;SDS011;44557;51.862;19.378;2023-09-19T02:46:34;19.40;;;13.10;;
58784;SDS011;44557;51.862;19.378;2023-09-19T02:48:39;15.50;;;13.20;;
58784;SDS011;44557;51.862;19.378;2023-09-19T02:50:41;19.00;;;14.30;;
58784;SDS011;44557;51.862;19.378;2023-09-19T02:52:45;17.50;;;14.10;;
58784;SDS011;44557;51.862;19.378;2023-09-19T02:54:52;16.10;;;14.00;;
58784;SDS011;44557;51.862;19.378;2023-09-19T02:56:55;17.30;;;14.80;;
58784;SDS011;44557;51.862;19.378;2023-09-19T02:58:58;18.20;;;14.70;;
58784;SDS011;44557;51.862;19.378;2023-09-19T03:01:12;16.90;;;14.50;;
58784;SDS011;44557;51.862;19.378;2023-09-19T03:03:15;16.90;;;13.70;;
58784;SDS011;44557;51.862;19.378;2023-09-19T03:05:20;18.70;;;13.80;;
58784;SDS011;44557;51.862;19.378;2023-09-19T03:07:24;17.20;;;13.90;;
58784;SDS011;44557;51.862;19.378;2023-09-19T03:09:26;16.50;;;13.30;;
58784;SDS011;44557;51.862;19.378;2023-09-19T03:11:28;20.00;;;14.90;;
58784;SDS011;44557;51.862;19.378;2023-09-19T03:13:30;16.40;;;14.00;;
58784;SDS011;44557;51.862;19.378;2023-09-19T03:15:33;16.50;;;14.30;;
58784;SDS011;44557;51.862;19.378;2023-09-19T03:17:36;18.90;;;14.70;;
58784;SDS011;44557;51.862;19.378;2023-09-19T03:19:37;17.40;;;14.60;;
58784;SDS011;44557;51.862;19.378;2023-09-19T03:21:41;16.40;;;14.50;;
58784;SDS011;44557;51.862;19.378;2023-09-19T03:23:43;16.40;;;13.00;;
58784;SDS011;44557;51.862;19.378;2023-09-19T03:25:48;16.40;;;14.70;;
58784;SDS011;44557;51.862;19.378;2023-09-19T03:27:50;16.60;;;13.70;;
58784;SDS011;44557;51.862;19.378;2023-09-19T03:29:52;17.00;;;14.40;;
58784;SDS011;44557;51.862;19.378;2023-09-19T03:31:55;18.40;;;13.90;;
58784;SDS011;44557;51.862;19.378;2023-09-19T03:33:58;18.40;;;14.50;;
58784;SDS011;44557;51.862;19.378;2023-09-19T03:36:00;19.10;;;14.80;;
58784;SDS011;44557;51.862;19.378;2023-09-19T03:38:07;16.00;;;14.10;;
58784;SDS011;44557;51.862;19.378;2023-09-19T03:40:10;17.20;;;15.20;;
58784;SDS011;44557;51.862;19.378;2023-09-19T03:42:12;17.40;;;15.00;;
58784;SDS011;44557;51.862;19.378;2023-09-19T03:44:14;17.70;;;14.40;;
58784;SDS011;44557;51.862;19.378;2023-09-19T03:46:16;16.80;;;14.00;;
58784;SDS011;44557;51.862;19.378;2023-09-19T03:48:19;16.40;;;14.30;;
58784;SDS011;44557;51.862;19.378;2023-09-19T03:50:21;16.10;;;14.30;;
58784;SDS011;44557;51.862;19.378;2023-09-19T03:52:22;18.80;;;14.70;;
58784;SDS011;44557;51.862;19.378;2023-09-19T03:54:26;21.40;;;13.90;;
58784;SDS011;44557;51.862;19.378;2023-09-19T03:56:28;17.50;;;13.80;;
58784;SDS011;44557;51.862;19.378;2023-09-19T03:58:31;20.90;;;15.10;;
58784;SDS011;44557;51.862;19.378;2023-09-19T04:00:36;17.80;;;14.90;;
58784;SDS011;44557;51.862;19.378;2023-09-19T04:02:39;19.60;;;14.60;;
58784;SDS011;44557;51.862;19.378;2023-09-19T04:04:41;19.50;;;14.70;;
58784;SDS011;44557;51.862;19.378;2023-09-19T04:06:43;20.50;;;14.60;;
58784;SDS011;44557;51.862;19.378;2023-09-19T04:08:47;18.80;;;14.70;;
58784;SDS011;44557;51.862;19.378;2023-09-19T04:10:49;17.20;;;14.70;;
58784;SDS011;44557;51.862;19.378;2023-09-19T04:12:53;18.80;;;14.80;;
58784;SDS011;44557;51.862;19.378;2023-09-19T04:14:56;18.50;;;14.50;;
58784;SDS011;44557;51.862;19.378;2023-09-19T04:16:58;17.00;;;14.30;;
58784;SDS011;44557;51.862;19.378;2023-09-19T04:19:01;17.60;;;14.20;;
58784;SDS011;44557;51.862;19.378;2023-09-19T04:21:05;17.20;;;14.80;;
58784;SDS011;44557;51.862;19.378;2023-09-19T04:23:07;17.80;;;14.50;;
58784;SDS011;44557;51.862;19.378;2023-09-19T04:25:10;17.50;;;14.30;;
58784;SDS011;44557;51.862;19.378;2023-09-19T04:27:12;18.10;;;13.40;;
58784;SDS011;44557;51.862;19.378;2023-09-19T04:29:16;18.80;;;15.40;;
58784;SDS011;44557;51.862;19.378;2023-09-19T04:31:21;18.90;;;15.10;;
58784;SDS011;44557;51.862;19.378;2023-09-19T04:33:24;18.90;;;14.50;;
58784;SDS011;44557;51.862;19.378;2023-09-19T04:35:28;18.40;;;14.40;;
58784;SDS011;44557;51.862;19.378;2023-09-19T04:37:33;18.20;;;15.20;;
58784;SDS011;44557;51.862;19.378;2023-09-19T04:39:36;18.20;;;14.70;;
58784;SDS011;44557;51.862;19.378;2023-09-19T04:41:38;18.90;;;14.80;;
58784;SDS011;44557;51.862;19.378;2023-09-19T04:43:43;17.00;;;13.80;;
58784;SDS011;44557;51.862;19.378;2023-09-19T04:45:45;19.20;;;14.70;;
58784;SDS011;44557;51.862;19.378;2023-09-19T04:47:48;22.60;;;15.30;;
58784;SDS011;44557;51.862;19.378;2023-09-19T04:49:50;18.80;;;15.00;;
58784;SDS011;44557;51.862;19.378;2023-09-19T04:51:52;18.80;;;14.50;;
58784;SDS011;44557;51.862;19.378;2023-09-19T04:53:55;17.20;;;15.40;;
58784;SDS011;44557;51.862;19.378;2023-09-19T04:55:57;23.60;;;16.20;;
58784;SDS011;44557;51.862;19.378;2023-09-19T04:57:59;19.30;;;15.30;;
58784;SDS011;44557;51.862;19.378;2023-09-19T05:00:02;23.70;;;15.30;;
58784;SDS011;44557;51.862;19.378;2023-09-19T05:02:13;23.60;;;15.90;;
58784;SDS011;44557;51.862;19.378;2023-09-19T05:04:15;22.70;;;15.10;;
58784;SDS011;44557;51.862;19.378;2023-09-19T05:06:21;24.10;;;16.20;;
58784;SDS011;44557;51.862;19.378;2023-09-19T05:08:23;20.60;;;15.60;;
58784;SDS011;44557;51.862;19.378;2023-09-19T05:10:27;19.20;;;15.80;;
58784;SDS011;44557;51.862;19.378;2023-09-19T05:12:29;22.50;;;15.30;;
58784;SDS011;44557;51.862;19.378;2023-09-19T05:14:31;19.70;;;15.10;;
58784;SDS011;44557;51.862;19.378;2023-09-19T05:16:33;19.60;;;16.60;;
58784;SDS011;44557;51.862;19.378;2023-09-19T05:18:35;21.10;;;15.60;;
58784;SDS011;44557;51.862;19.378;2023-09-19T05:20:37;20.10;;;15.60;;
58784;SDS011;44557;51.862;19.378;2023-09-19T05:22:42;21.80;;;16.20;;
58784;SDS011;44557;51.862;19.378;2023-09-19T05:24:45;20.60;;;16.00;;
58784;SDS011;44557;51.862;19.378;2023-09-19T05:26:49;20.60;;;16.70;;
58784;SDS011;44557;51.862;19.378;2023-09-19T05:28:51;24.70;;;17.30;;
58784;SDS011;44557;51.862;19.378;2023-09-19T05:30:55;22.20;;;17.60;;
58784;SDS011;44557;51.862;19.378;2023-09-19T05:32:57;20.80;;;16.60;;
58784;SDS011;44557;51.862;19.378;2023-09-19T05:35:00;21.70;;;17.50;;
58784;SDS011;44557;51.862;19.378;2023-09-19T05:37:03;20.40;;;15.10;;
58784;SDS011;44557;51.862;19.378;2023-09-19T05:39:06;18.10;;;14.90;;
58784;SDS011;44557;51.862;19.378;2023-09-19T05:41:11;18.50;;;15.90;;
58784;SDS011;44557;51.862;19.378;2023-09-19T05:43:15;18.00;;;16.10;;
58784;SDS011;44557;51.862;19.378;2023-09-19T05:45:17;20.00;;;15.60;;
58784;SDS011;44557;51.862;19.378;2023-09-19T05:47:26;19.40;;;15.20;;
58784;SDS011;44557;51.862;19.378;2023-09-19T05:49:30;18.10;;;15.50;;
58784;SDS011;44557;51.862;19.378;2023-09-19T05:51:33;18.60;;;15.40;;
58784;SDS011;44557;51.862;19.378;2023-09-19T05:53:35;16.70;;;14.20;;
58784;SDS011;44557;51.862;19.378;2023-09-19T05:55:37;18.60;;;14.90;;
58784;SDS011;44557;51.862;19.378;2023-09-19T05:57:40;19.30;;;14.20;;
58784;SDS011;44557;51.862;19.378;2023-09-19T05:59:44;18.10;;;13.70;;
58784;SDS011;44557;51.862;19.378;2023-09-19T06:01:46;19.00;;;14.00;;
58784;SDS011;44557;51.862;19.378;2023-09-19T06:03:48;16.80;;;12.90;;
58784;SDS011;44557;51.862;19.378;2023-09-19T06:05:50;15.50;;;13.40;;
58784;SDS011;44557;51.862;19.378;2023-09-19T06:07:54;15.20;;;12.70;;
58784;SDS011;44557;51.862;19.378;2023-09-19T06:09:56;15.50;;;12.60;;
58784;SDS011;44557;51.862;19.378;2023-09-19T06:11:58;15.40;;;12.60;;
58784;SDS011;44557;51.862;19.378;2023-09-19T06:14:05;15.70;;;13.20;;
58784;SDS011;44557;51.862;19.378;2023-09-19T06:16:06;15.70;;;13.30;;
58784;SDS011;44557;51.862;19.378;2023-09-19T06:18:10;18.00;;;13.00;;
58784;SDS011;44557;51.862;19.378;2023-09-19T06:20:15;17.30;;;13.30;;
58784;SDS011;44557;51.862;19.378;2023-09-19T06:22:18;15.30;;;13.00;;
58784;SDS011;44557;51.862;19.378;2023-09-19T06:24:21;14.50;;;12.20;;
58784;SDS011;44557;51.862;19.378;2023-09-19T06:26:23;18.20;;;12.20;;
58784;SDS011;44557;51.862;19.378;2023-09-19T06:28:28;15.00;;;12.50;;
58784;SDS011;44557;51.862;19.378;2023-09-19T06:30:30;16.80;;;12.10;;
58784;SDS011;44557;51.862;19.378;2023-09-19T06:32:33;17.00;;;12.20;;
58784;SDS011;44557;51.862;19.378;2023-09-19T06:34:36;14.90;;;11.90;;
58784;SDS011;44557;51.862;19.378;2023-09-19T06:36:39;14.80;;;12.10;;
58784;SDS011;44557;51.862;19.378;2023-09-19T06:38:43;13.40;;;11.60;;
58784;SDS011;44557;51.862;19.378;2023-09-19T06:40:46;14.00;;;11.60;;
58784;SDS011;44557;51.862;19.378;2023-09-19T06:42:52;15.10;;;10.20;;
58784;SDS011;44557;51.862;19.378;2023-09-19T06:44:55;14.60;;;9.80;;
58784;SDS011;44557;51.862;19.378;2023-09-19T06:46:57;12.90;;;10.70;;
58784;SDS011;44557;51.862;19.378;2023-09-19T06:49:00;12.60;;;10.40;;
58784;SDS011;44557;51.862;19.378;2023-09-19T06:51:02;12.90;;;9.80;;
58784;SDS011;44557;51.862;19.378;2023-09-19T06:53:06;12.00;;;9.60;;
58784;SDS011;44557;51.862;19.378;2023-09-19T06:55:08;13.90;;;10.40;;
58784;SDS011;44557;51.862;19.378;2023-09-19T06:57:15;12.40;;;10.00;;
58784;SDS011;44557;51.862;19.378;2023-09-19T06:59:17;12.10;;;8.70;;
58784;SDS011;44557;51.862;19.378;2023-09-19T07:01:20;13.40;;;9.80;;
58784;SDS011;44557;51.862;19.378;2023-09-19T07:03:22;12.70;;;9.10;;
58784;SDS011;44557;51.862;19.378;2023-09-19T07:05:28;12.40;;;9.20;;
58784;SDS011;44557;51.862;19.378;2023-09-19T07:07:31;10.00;;;8.60;;
58784;SDS011;44557;51.862;19.378;2023-09-19T07:09:36;12.00;;;8.30;;
58784;SDS011;44557;51.862;19.378;2023-09-19T07:11:38;11.30;;;8.30;;
58784;SDS011;44557;51.862;19.378;2023-09-19T07:13:41;12.90;;;8.30;;
58784;SDS011;44557;51.862;19.378;2023-09-19T07:15:44;12.20;;;9.00;;
58784;SDS011;44557;51.862;19.378;2023-09-19T07:17:48;11.80;;;8.80;;
58784;SDS011;44557;51.862;19.378;2023-09-19T07:19:51;13.10;;;9.40;;
58784;SDS011;44557;51.862;19.378;2023-09-19T07:21:53;14.30;;;9.10;;
58784;SDS011;44557;51.862;19.378;2023-09-19T07:23:56;11.30;;;8.80;;
58784;SDS011;44557;51.862;19.378;2023-09-19T07:25:58;12.00;;;9.30;;
58784;SDS011;44557;51.862;19.378;2023-09-19T07:28:00;13.80;;;8.40;;
58784;SDS011;44557;51.862;19.378;2023-09-19T07:30:03;11.90;;;8.40;;
58784;SDS011;44557;51.862;19.378;2023-09-19T07:32:10;11.50;;;8.50;;
58784;SDS011;44557;51.862;19.378;2023-09-19T07:34:14;11.30;;;8.00;;
58784;SDS011;44557;51.862;19.378;2023-09-19T07:36:16;10.30;;;7.80;;
58784;SDS011;44557;51.862;19.378;2023-09-19T07:38:19;10.60;;;7.30;;
58784;SDS011;44557;51.862;19.378;2023-09-19T07:40:23;10.80;;;7.40;;
58784;SDS011;44557;51.862;19.378;2023-09-19T07:42:31;9.40;;;6.60;;
58784;SDS011;44557;51.862;19.378;2023-09-19T07:44:35;11.60;;;7.20;;
58784;SDS011;44557;51.862;19.378;2023-09-19T07:46:40;10.00;;;6.30;;
58784;SDS011;44557;51.862;19.378;2023-09-19T07:48:42;11.60;;;6.40;;
58784;SDS011;44557;51.862;19.378;2023-09-19T07:50:52;11.00;;;6.40;;
58784;SDS011;44557;51.862;19.378;2023-09-19T07:52:54;7.90;;;5.30;;
58784;SDS011;44557;51.862;19.378;2023-09-19T07:54:58;6.80;;;4.70;;
58784;SDS011;44557;51.862;19.378;2023-09-19T07:57:04;8.20;;;4.60;;
58784;SDS011;44557;51.862;19.378;2023-09-19T07:59:06;9.40;;;5.40;;
58784;SDS011;44557;51.862;19.378;2023-09-19T08:01:10;8.60;;;4.70;;
58784;SDS011;44557;51.862;19.378;2023-09-19T08:03:18;6.80;;;3.80;;
58784;SDS011;44557;51.862;19.378;2023-09-19T08:05:21;8.20;;;4.00;;
58784;SDS011;44557;51.862;19.378;2023-09-19T08:07:24;9.80;;;4.10;;
58784;SDS011;44557;51.862;19.378;2023-09-19T08:09:26;7.90;;;3.50;;
58784;SDS011;44557;51.862;19.378;2023-09-19T08:11:31;9.40;;;3.80;;
58784;SDS011;44557;51.862;19.378;2023-09-19T08:13:33;5.90;;;3.30;;
58784;SDS011;44557;51.862;19.378;2023-09-19T08:15:35;8.70;;;3.90;;
58784;SDS011;44557;51.862;19.378;2023-09-19T08:17:37;9.60;;;4.10;;
58784;SDS011;44557;51.862;19.378;2023-09-19T08:19:40;7.80;;;3.50;;
58784;SDS011;44557;51.862;19.378;2023-09-19T08:21:43;7.30;;;3.90;;
58784;SDS011;44557;51.862;19.378;2023-09-19T08:23:52;7.20;;;3.80;;
58784;SDS011;44557;51.862;19.378;2023-09-19T08:25:58;10.10;;;4.00;;
58784;SDS011;44557;51.862;19.378;2023-09-19T08:28:04;7.70;;;3.60;;
58784;SDS011;44557;51.862;19.378;2023-09-19T08:30:11;9.30;;;4.00;;
58784;SDS011;44557;51.862;19.378;2023-09-19T08:32:13;9.80;;;4.30;;
58784;SDS011;44557;51.862;19.378;2023-09-19T08:34:17;9.20;;;4.20;;
58784;SDS011;44557;51.862;19.378;2023-09-19T08:36:20;12.10;;;4.60;;
58784;SDS011;44557;51.862;19.378;2023-09-19T08:38:25;8.80;;;4.10;;
58784;SDS011;44557;51.862;19.378;2023-09-19T08:40:48;7.20;;;4.20;;
58784;SDS011;44557;51.862;19.378;2023-09-19T08:42:52;6.50;;;4.10;;
58784;SDS011;44557;51.862;19.378;2023-09-19T08:44:55;7.30;;;4.70;;
58784;SDS011;44557;51.862;19.378;2023-09-19T08:47:08;8.50;;;4.70;;
58784;SDS011;44557;51.862;19.378;2023-09-19T08:51:39;7.80;;;4.50;;
58784;SDS011;44557;51.862;19.378;2023-09-19T08:53:52;7.70;;;4.20;;
58784;SDS011;44557;51.862;19.378;2023-09-19T08:56:01;7.40;;;4.60;;
58784;SDS011;44557;51.862;19.378;2023-09-19T08:58:06;7.00;;;4.90;;
58784;SDS011;44557;51.862;19.378;2023-09-19T09:00:13;8.50;;;5.60;;
58784;SDS011;44557;51.862;19.378;2023-09-19T09:02:19;10.80;;;5.10;;
58784;SDS011;44557;51.862;19.378;2023-09-19T09:04:22;6.90;;;4.30;;
58784;SDS011;44557;51.862;19.378;2023-09-19T09:06:25;7.80;;;5.20;;
58784;SDS011;44557;51.862;19.378;2023-09-19T09:08:30;8.00;;;5.20;;
58784;SDS011;44557;51.862;19.378;2023-09-19T09:10:33;10.20;;;6.00;;
58784;SDS011;44557;51.862;19.378;2023-09-19T09:12:36;9.20;;;6.30;;
58784;SDS011;44557;51.862;19.378;2023-09-19T09:14:44;8.60;;;5.80;;
58784;SDS011;44557;51.862;19.378;2023-09-19T09:16:51;9.30;;;6.60;;
58784;SDS011;44557;51.862;19.378;2023-09-19T09:18:59;8.60;;;6.20;;
58784;SDS011;44557;51.862;19.378;2023-09-19T09:21:01;11.80;;;6.50;;
58784;SDS011;44557;51.862;19.378;2023-09-19T09:23:05;8.90;;;6.90;;
58784;SDS011;44557;51.862;19.378;2023-09-19T09:25:08;9.60;;;7.00;;
58784;SDS011;44557;51.862;19.378;2023-09-19T09:27:10;8.90;;;7.00;;
58784;SDS011;44557;51.862;19.378;2023-09-19T09:29:15;8.80;;;7.10;;
58784;SDS011;44557;51.862;19.378;2023-09-19T09:31:24;10.60;;;7.00;;
58784;SDS011;44557;51.862;19.378;2023-09-19T09:33:26;9.40;;;6.80;;
58784;SDS011;44557;51.862;19.378;2023-09-19T09:35:30;10.00;;;7.00;;
58784;SDS011;44557;51.862;19.378;2023-09-19T09:37:33;9.40;;;7.40;;
58784;SDS011;44557;51.862;19.378;2023-09-19T09:39:37;10.20;;;8.70;;
58784;SDS011;44557;51.862;19.378;2023-09-19T09:41:39;8.50;;;7.50;;
58784;SDS011;44557;51.862;19.378;2023-09-19T09:43:42;9.10;;;8.20;;
58784;SDS011;44557;51.862;19.378;2023-09-19T09:45:55;11.20;;;8.30;;
58784;SDS011;44557;51.862;19.378;2023-09-19T09:48:44;9.10;;;8.10;;
58784;SDS011;44557;51.862;19.378;2023-09-19T09:50:55;9.70;;;7.10;;
58784;SDS011;44557;51.862;19.378;2023-09-19T09:52:58;9.20;;;7.80;;
58784;SDS011;44557;51.862;19.378;2023-09-19T09:55:08;10.10;;;7.80;;
58784;SDS011;44557;51.862;19.378;2023-09-19T09:57:11;11.30;;;7.80;;
58784;SDS011;44557;51.862;19.378;2023-09-19T09:59:22;10.00;;;7.80;;
58784;SDS011;44557;51.862;19.378;2023-09-19T10:01:26;9.70;;;7.20;;
58784;SDS011;44557;51.862;19.378;2023-09-19T10:03:37;12.10;;;7.50;;
58784;SDS011;44557;51.862;19.378;2023-09-19T10:05:53;9.10;;;7.90;;
58784;SDS011;44557;51.862;19.378;2023-09-19T10:07:57;8.60;;;7.60;;
58784;SDS011;44557;51.862;19.378;2023-09-19T10:10:14;10.80;;;7.40;;
58784;SDS011;44557;51.862;19.378;2023-09-19T10:12:26;8.60;;;7.30;;
58784;SDS011;44557;51.862;19.378;2023-09-19T10:14:30;11.60;;;8.00;;
58784;SDS011;44557;51.862;19.378;2023-09-19T10:16:37;8.20;;;6.90;;
58784;SDS011;44557;51.862;19.378;2023-09-19T10:18:42;9.00;;;7.10;;
58784;SDS011;44557;51.862;19.378;2023-09-19T10:20:46;9.20;;;7.30;;
58784;SDS011;44557;51.862;19.378;2023-09-19T10:22:50;9.60;;;8.20;;
58784;SDS011;44557;51.862;19.378;2023-09-19T10:24:59;8.80;;;7.10;;
58784;SDS011;44557;51.862;19.378;2023-09-19T10:27:03;10.80;;;7.70;;
58784;SDS011;44557;51.862;19.378;2023-09-19T10:29:10;8.70;;;7.60;;
58784;SDS011;44557;51.862;19.378;2023-09-19T10:31:18;9.40;;;7.80;;
58784;SDS011;44557;51.862;19.378;2023-09-19T10:33:23;9.70;;;7.50;;
58784;SDS011;44557;51.862;19.378;2023-09-19T10:35:32;9.10;;;7.20;;
58784;SDS011;44557;51.862;19.378;2023-09-19T10:37:35;9.80;;;7.60;;
58784;SDS011;44557;51.862;19.378;2023-09-19T10:39:39;10.00;;;7.50;;
58784;SDS011;44557;51.862;19.378;2023-09-19T10:41:43;7.70;;;6.90;;
58784;SDS011;44557;51.862;19.378;2023-09-19T10:43:49;10.30;;;7.70;;
58784;SDS011;44557;51.862;19.378;2023-09-19T10:45:57;10.10;;;7.00;;
58784;SDS011;44557;51.862;19.378;2023-09-19T10:48:06;9.30;;;6.80;;
58784;SDS011;44557;51.862;19.378;2023-09-19T10:50:10;7.60;;;6.70;;
58784;SDS011;44557;51.862;19.378;2023-09-19T10:52:23;8.40;;;6.70;;
58784;SDS011;44557;51.862;19.378;2023-09-19T10:54:30;8.00;;;7.00;;
58784;SDS011;44557;51.862;19.378;2023-09-19T10:56:39;8.60;;;6.70;;
58784;SDS011;44557;51.862;19.378;2023-09-19T10:58:46;9.50;;;6.70;;
58784;SDS011;44557;51.862;19.378;2023-09-19T11:00:54;9.50;;;7.00;;
58784;SDS011;44557;51.862;19.378;2023-09-19T11:05:22;8.70;;;6.10;;
58784;SDS011;44557;51.862;19.378;2023-09-19T11:07:27;9.10;;;7.00;;
58784;SDS011;44557;51.862;19.378;2023-09-19T11:09:54;9.10;;;6.60;;
58784;SDS011;44557;51.862;19.378;2023-09-19T11:14:38;10.00;;;7.00;;
58784;SDS011;44557;51.862;19.378;2023-09-19T11:19:06;8.80;;;6.10;;
58784;SDS011;44557;51.862;19.378;2023-09-19T11:23:33;7.90;;;5.60;;
58784;SDS011;44557;51.862;19.378;2023-09-19T11:30:25;7.10;;;5.10;;
58784;SDS011;44557;51.862;19.378;2023-09-19T11:33:15;8.10;;;5.30;;
58784;SDS011;44557;51.862;19.378;2023-09-19T11:35:22;6.90;;;5.20;;
58784;SDS011;44557;51.862;19.378;2023-09-19T11:39:34;8.70;;;5.00;;
58784;SDS011;44557;51.862;19.378;2023-09-19T11:41:36;8.20;;;4.90;;
58784;SDS011;44557;51.862;19.378;2023-09-19T11:43:40;8.60;;;4.70;;
58784;SDS011;44557;51.862;19.378;2023-09-19T11:47:47;7.60;;;4.70;;
58784;SDS011;44557;51.862;19.378;2023-09-19T11:49:50;6.30;;;5.00;;
58784;SDS011;44557;51.862;19.378;2023-09-19T11:51:55;9.00;;;5.60;;
58784;SDS011;44557;51.862;19.378;2023-09-19T11:53:59;9.50;;;5.30;;
58784;SDS011;44557;51.862;19.378;2023-09-19T11:56:04;10.10;;;4.70;;
58784;SDS011;44557;51.862;19.378;2023-09-19T11:58:12;7.30;;;4.70;;
58784;SDS011;44557;51.862;19.378;2023-09-19T12:00:18;7.10;;;4.10;;
58784;SDS011;44557;51.862;19.378;2023-09-19T12:02:30;6.30;;;4.50;;
58784;SDS011;44557;51.862;19.378;2023-09-19T12:04:42;7.80;;;4.70;;
58784;SDS011;44557;51.862;19.378;2023-09-19T12:06:46;5.50;;;4.10;;
58784;SDS011;44557;51.862;19.378;2023-09-19T12:08:58;6.80;;;4.20;;
58784;SDS011;44557;51.862;19.378;2023-09-19T12:11:01;8.40;;;4.30;;
58784;SDS011;44557;51.862;19.378;2023-09-19T12:13:03;6.40;;;3.60;;
58784;SDS011;44557;51.862;19.378;2023-09-19T12:15:09;6.00;;;3.80;;
58784;SDS011;44557;51.862;19.378;2023-09-19T12:17:12;8.10;;;3.90;;
58784;SDS011;44557;51.862;19.378;2023-09-19T12:19:19;7.40;;;4.00;;
58784;SDS011;44557;51.862;19.378;2023-09-19T12:21:30;6.00;;;3.00;;
58784;SDS011;44557;51.862;19.378;2023-09-19T12:23:38;7.60;;;3.70;;
58784;SDS011;44557;51.862;19.378;2023-09-19T12:25:43;6.10;;;3.60;;
58784;SDS011;44557;51.862;19.378;2023-09-19T12:27:49;5.70;;;3.50;;
58784;SDS011;44557;51.862;19.378;2023-09-19T12:29:54;6.10;;;3.00;;
58784;SDS011;44557;51.862;19.378;2023-09-19T12:32:01;9.50;;;3.80;;
58784;SDS011;44557;51.862;19.378;2023-09-19T12:34:09;5.60;;;2.90;;
58784;SDS011;44557;51.862;19.378;2023-09-19T12:36:20;6.40;;;2.80;;
58784;SDS011;44557;51.862;19.378;2023-09-19T12:38:33;5.90;;;3.70;;
58784;SDS011;44557;51.862;19.378;2023-09-19T12:40:36;8.00;;;4.70;;
58784;SDS011;44557;51.862;19.378;2023-09-19T12:42:40;6.30;;;3.00;;
58784;SDS011;44557;51.862;19.378;2023-09-19T12:44:44;4.50;;;2.40;;